sensor_id;sensor_type;location;lat;lon;timestamp;P1;durP1;ratioP1;P2;durP2;ratioP2
84523;SDS011;74765;44.538;18.668;2023-12-20T00:01:25;301.08;;;123.07;;
84523;SDS011;74765;44.538;18.668;2023-12-20T00:03:51;299.13;;;122.18;;
84523;SDS011;74765;44.538;18.668;2023-12-20T00:06:16;300.58;;;122.65;;
84523;SDS011;74765;44.538;18.668;2023-12-20T00:08:42;319.92;;;130.35;;
84523;SDS011;74765;44.538;18.668;2023-12-20T00:11:09;305.67;;;122.53;;
84523;SDS011;74765;44.538;18.668;2023-12-20T00:13:35;279.35;;;114.45;;
84523;SDS011;74765;44.538;18.668;2023-12-20T00:16:00;291.58;;;114.78;;
84523;SDS011;74765;44.538;18.668;2023-12-20T00:18:26;313.08;;;130.52;;
84523;SDS011;74765;44.538;18.668;2023-12-20T00:20:52;303.05;;;114.15;;
84523;SDS011;74765;44.538;18.668;2023-12-20T00:23:18;310.50;;;122.95;;
84523;SDS011;74765;44.538;18.668;2023-12-20T00:25:43;309.48;;;125.18;;
84523;SDS011;74765;44.538;18.668;2023-12-20T00:28:09;301.85;;;120.78;;
84523;SDS011;74765;44.538;18.668;2023-12-20T00:30:35;278.13;;;113.32;;
84523;SDS011;74765;44.538;18.668;2023-12-20T00:33:01;284.30;;;110.40;;
84523;SDS011;74765;44.538;18.668;2023-12-20T00:35:27;264.33;;;104.50;;
84523;SDS011;74765;44.538;18.668;2023-12-20T00:37:53;265.42;;;104.28;;
84523;SDS011;74765;44.538;18.668;2023-12-20T00:40:19;256.00;;;104.10;;
84523;SDS011;74765;44.538;18.668;2023-12-20T00:42:46;265.48;;;105.03;;
84523;SDS011;74765;44.538;18.668;2023-12-20T00:45:12;256.92;;;105.00;;
84523;SDS011;74765;44.538;18.668;2023-12-20T00:47:38;261.27;;;105.03;;
84523;SDS011;74765;44.538;18.668;2023-12-20T00:50:04;261.38;;;107.40;;
84523;SDS011;74765;44.538;18.668;2023-12-20T00:52:30;261.55;;;105.03;;
84523;SDS011;74765;44.538;18.668;2023-12-20T00:54:56;224.57;;;95.10;;
84523;SDS011;74765;44.538;18.668;2023-12-20T00:57:21;245.77;;;101.55;;
84523;SDS011;74765;44.538;18.668;2023-12-20T00:59:47;236.40;;;98.43;;
84523;SDS011;74765;44.538;18.668;2023-12-20T01:02:13;269.60;;;109.43;;
84523;SDS011;74765;44.538;18.668;2023-12-20T01:04:39;293.80;;;115.28;;
84523;SDS011;74765;44.538;18.668;2023-12-20T01:07:04;268.63;;;104.18;;
84523;SDS011;74765;44.538;18.668;2023-12-20T01:09:30;249.27;;;104.35;;
84523;SDS011;74765;44.538;18.668;2023-12-20T01:11:56;223.25;;;91.90;;
84523;SDS011;74765;44.538;18.668;2023-12-20T01:14:22;222.23;;;92.30;;
84523;SDS011;74765;44.538;18.668;2023-12-20T01:16:47;179.07;;;80.55;;
84523;SDS011;74765;44.538;18.668;2023-12-20T01:19:13;190.32;;;76.65;;
84523;SDS011;74765;44.538;18.668;2023-12-20T01:21:40;194.40;;;77.75;;
84523;SDS011;74765;44.538;18.668;2023-12-20T01:24:06;199.10;;;83.72;;
84523;SDS011;74765;44.538;18.668;2023-12-20T01:26:31;202.43;;;84.55;;
84523;SDS011;74765;44.538;18.668;2023-12-20T01:28:57;243.43;;;95.32;;
84523;SDS011;74765;44.538;18.668;2023-12-20T01:31:23;208.50;;;85.20;;
84523;SDS011;74765;44.538;18.668;2023-12-20T01:33:49;181.88;;;78.25;;
84523;SDS011;74765;44.538;18.668;2023-12-20T01:36:15;189.05;;;79.43;;
84523;SDS011;74765;44.538;18.668;2023-12-20T01:38:41;178.40;;;75.85;;
84523;SDS011;74765;44.538;18.668;2023-12-20T01:41:06;187.73;;;79.40;;
84523;SDS011;74765;44.538;18.668;2023-12-20T01:43:32;192.60;;;80.90;;
84523;SDS011;74765;44.538;18.668;2023-12-20T01:46:01;205.05;;;85.75;;
84523;SDS011;74765;44.538;18.668;2023-12-20T01:48:28;202.70;;;83.90;;
84523;SDS011;74765;44.538;18.668;2023-12-20T01:50:55;219.90;;;87.68;;
84523;SDS011;74765;44.538;18.668;2023-12-20T01:53:21;224.75;;;95.10;;
84523;SDS011;74765;44.538;18.668;2023-12-20T01:55:50;198.00;;;79.95;;
84523;SDS011;74765;44.538;18.668;2023-12-20T01:58:17;188.90;;;81.22;;
84523;SDS011;74765;44.538;18.668;2023-12-20T02:00:44;211.70;;;87.55;;
84523;SDS011;74765;44.538;18.668;2023-12-20T02:03:10;225.18;;;89.82;;
84523;SDS011;74765;44.538;18.668;2023-12-20T02:05:37;210.65;;;88.78;;
84523;SDS011;74765;44.538;18.668;2023-12-20T02:08:03;198.75;;;85.38;;
84523;SDS011;74765;44.538;18.668;2023-12-20T02:10:31;185.55;;;79.82;;
84523;SDS011;74765;44.538;18.668;2023-12-20T02:12:57;190.65;;;74.72;;
84523;SDS011;74765;44.538;18.668;2023-12-20T02:15:23;177.00;;;76.45;;
84523;SDS011;74765;44.538;18.668;2023-12-20T02:17:49;167.50;;;72.25;;
84523;SDS011;74765;44.538;18.668;2023-12-20T02:20:15;188.65;;;77.53;;
84523;SDS011;74765;44.538;18.668;2023-12-20T02:22:40;197.70;;;78.35;;
84523;SDS011;74765;44.538;18.668;2023-12-20T02:25:06;199.88;;;78.78;;
84523;SDS011;74765;44.538;18.668;2023-12-20T02:27:32;175.77;;;74.07;;
84523;SDS011;74765;44.538;18.668;2023-12-20T02:29:59;170.40;;;72.28;;
84523;SDS011;74765;44.538;18.668;2023-12-20T02:32:25;195.27;;;81.20;;
84523;SDS011;74765;44.538;18.668;2023-12-20T02:34:54;202.68;;;84.45;;
84523;SDS011;74765;44.538;18.668;2023-12-20T02:37:20;197.48;;;80.68;;
84523;SDS011;74765;44.538;18.668;2023-12-20T02:39:46;189.25;;;80.35;;
84523;SDS011;74765;44.538;18.668;2023-12-20T02:42:12;189.68;;;79.95;;
84523;SDS011;74765;44.538;18.668;2023-12-20T02:44:38;192.77;;;77.50;;
84523;SDS011;74765;44.538;18.668;2023-12-20T02:47:03;173.02;;;74.32;;
84523;SDS011;74765;44.538;18.668;2023-12-20T02:49:29;167.48;;;70.00;;
84523;SDS011;74765;44.538;18.668;2023-12-20T02:51:55;181.68;;;74.40;;
84523;SDS011;74765;44.538;18.668;2023-12-20T02:54:21;152.18;;;62.67;;
84523;SDS011;74765;44.538;18.668;2023-12-20T02:56:47;143.02;;;59.40;;
84523;SDS011;74765;44.538;18.668;2023-12-20T02:59:13;146.75;;;62.58;;
84523;SDS011;74765;44.538;18.668;2023-12-20T03:01:45;144.93;;;63.38;;
84523;SDS011;74765;44.538;18.668;2023-12-20T03:04:11;160.82;;;66.70;;
84523;SDS011;74765;44.538;18.668;2023-12-20T03:06:37;153.82;;;64.03;;
84523;SDS011;74765;44.538;18.668;2023-12-20T03:09:03;163.02;;;69.25;;
84523;SDS011;74765;44.538;18.668;2023-12-20T03:11:30;167.07;;;68.50;;
84523;SDS011;74765;44.538;18.668;2023-12-20T03:13:56;158.32;;;67.47;;
84523;SDS011;74765;44.538;18.668;2023-12-20T03:16:22;162.73;;;69.78;;
84523;SDS011;74765;44.538;18.668;2023-12-20T03:18:47;157.35;;;66.20;;
84523;SDS011;74765;44.538;18.668;2023-12-20T03:21:13;153.85;;;59.38;;
84523;SDS011;74765;44.538;18.668;2023-12-20T03:23:40;149.43;;;63.80;;
84523;SDS011;74765;44.538;18.668;2023-12-20T03:26:08;136.63;;;59.10;;
84523;SDS011;74765;44.538;18.668;2023-12-20T03:28:34;146.97;;;62.77;;
84523;SDS011;74765;44.538;18.668;2023-12-20T03:31:01;137.85;;;59.47;;
84523;SDS011;74765;44.538;18.668;2023-12-20T03:33:27;134.50;;;56.53;;
84523;SDS011;74765;44.538;18.668;2023-12-20T03:35:53;153.48;;;66.47;;
84523;SDS011;74765;44.538;18.668;2023-12-20T03:38:20;139.05;;;61.70;;
84523;SDS011;74765;44.538;18.668;2023-12-20T03:40:46;139.80;;;56.05;;
84523;SDS011;74765;44.538;18.668;2023-12-20T03:43:12;121.65;;;52.28;;
84523;SDS011;74765;44.538;18.668;2023-12-20T03:45:37;126.15;;;54.95;;
84523;SDS011;74765;44.538;18.668;2023-12-20T03:48:03;135.00;;;55.70;;
84523;SDS011;74765;44.538;18.668;2023-12-20T03:50:30;126.43;;;55.83;;
84523;SDS011;74765;44.538;18.668;2023-12-20T03:52:55;127.47;;;56.30;;
84523;SDS011;74765;44.538;18.668;2023-12-20T03:55:21;120.60;;;51.25;;
84523;SDS011;74765;44.538;18.668;2023-12-20T03:57:47;113.45;;;50.40;;
84523;SDS011;74765;44.538;18.668;2023-12-20T04:00:13;112.32;;;48.28;;
84523;SDS011;74765;44.538;18.668;2023-12-20T04:02:39;102.57;;;47.47;;
84523;SDS011;74765;44.538;18.668;2023-12-20T04:05:06;117.80;;;50.00;;
84523;SDS011;74765;44.538;18.668;2023-12-20T04:07:33;120.88;;;50.13;;
84523;SDS011;74765;44.538;18.668;2023-12-20T04:10:00;124.22;;;53.10;;
84523;SDS011;74765;44.538;18.668;2023-12-20T04:12:27;118.72;;;51.22;;
84523;SDS011;74765;44.538;18.668;2023-12-20T04:14:53;119.60;;;51.90;;
84523;SDS011;74765;44.538;18.668;2023-12-20T04:17:19;122.95;;;51.85;;
84523;SDS011;74765;44.538;18.668;2023-12-20T04:19:48;127.22;;;54.08;;
84523;SDS011;74765;44.538;18.668;2023-12-20T04:22:17;111.20;;;50.22;;
84523;SDS011;74765;44.538;18.668;2023-12-20T04:24:44;110.03;;;47.50;;
84523;SDS011;74765;44.538;18.668;2023-12-20T04:27:10;104.63;;;46.33;;
84523;SDS011;74765;44.538;18.668;2023-12-20T04:29:36;114.40;;;49.28;;
84523;SDS011;74765;44.538;18.668;2023-12-20T04:32:02;115.25;;;50.90;;
84523;SDS011;74765;44.538;18.668;2023-12-20T04:34:27;111.32;;;47.55;;
84523;SDS011;74765;44.538;18.668;2023-12-20T04:36:53;112.40;;;49.75;;
84523;SDS011;74765;44.538;18.668;2023-12-20T04:39:19;115.68;;;51.28;;
84523;SDS011;74765;44.538;18.668;2023-12-20T04:41:45;121.93;;;55.17;;
84523;SDS011;74765;44.538;18.668;2023-12-20T04:44:13;128.43;;;53.90;;
84523;SDS011;74765;44.538;18.668;2023-12-20T04:46:38;117.03;;;50.15;;
84523;SDS011;74765;44.538;18.668;2023-12-20T04:49:04;116.05;;;51.03;;
84523;SDS011;74765;44.538;18.668;2023-12-20T04:51:32;123.07;;;54.10;;
84523;SDS011;74765;44.538;18.668;2023-12-20T04:53:59;127.30;;;52.90;;
84523;SDS011;74765;44.538;18.668;2023-12-20T04:56:24;125.03;;;53.20;;
84523;SDS011;74765;44.538;18.668;2023-12-20T04:58:50;136.25;;;56.70;;
84523;SDS011;74765;44.538;18.668;2023-12-20T05:01:16;133.32;;;57.58;;
84523;SDS011;74765;44.538;18.668;2023-12-20T05:03:42;119.30;;;52.95;;
84523;SDS011;74765;44.538;18.668;2023-12-20T05:06:08;130.52;;;54.08;;
84523;SDS011;74765;44.538;18.668;2023-12-20T05:08:34;128.55;;;53.53;;
84523;SDS011;74765;44.538;18.668;2023-12-20T05:11:00;121.32;;;52.08;;
84523;SDS011;74765;44.538;18.668;2023-12-20T05:13:26;109.18;;;49.72;;
84523;SDS011;74765;44.538;18.668;2023-12-20T05:15:51;117.30;;;48.03;;
84523;SDS011;74765;44.538;18.668;2023-12-20T05:18:17;111.00;;;49.67;;
84523;SDS011;74765;44.538;18.668;2023-12-20T05:20:43;105.63;;;46.90;;
84523;SDS011;74765;44.538;18.668;2023-12-20T05:23:09;112.40;;;48.33;;
84523;SDS011;74765;44.538;18.668;2023-12-20T05:25:34;113.75;;;48.10;;
84523;SDS011;74765;44.538;18.668;2023-12-20T05:28:00;131.23;;;55.25;;
84523;SDS011;74765;44.538;18.668;2023-12-20T05:30:26;126.00;;;53.35;;
84523;SDS011;74765;44.538;18.668;2023-12-20T05:32:52;124.97;;;51.97;;
84523;SDS011;74765;44.538;18.668;2023-12-20T05:35:17;114.00;;;52.15;;
84523;SDS011;74765;44.538;18.668;2023-12-20T05:37:44;114.95;;;51.00;;
84523;SDS011;74765;44.538;18.668;2023-12-20T05:40:10;117.78;;;48.85;;
84523;SDS011;74765;44.538;18.668;2023-12-20T05:42:38;117.10;;;49.90;;
84523;SDS011;74765;44.538;18.668;2023-12-20T05:45:04;121.43;;;51.28;;
84523;SDS011;74765;44.538;18.668;2023-12-20T05:47:31;125.93;;;51.90;;
84523;SDS011;74765;44.538;18.668;2023-12-20T05:49:57;124.82;;;51.47;;
84523;SDS011;74765;44.538;18.668;2023-12-20T05:52:25;137.88;;;57.45;;
84523;SDS011;74765;44.538;18.668;2023-12-20T05:54:51;123.78;;;54.47;;
84523;SDS011;74765;44.538;18.668;2023-12-20T05:57:17;146.95;;;60.40;;
84523;SDS011;74765;44.538;18.668;2023-12-20T05:59:43;141.65;;;62.17;;
84523;SDS011;74765;44.538;18.668;2023-12-20T06:02:08;122.43;;;52.58;;
84523;SDS011;74765;44.538;18.668;2023-12-20T06:04:34;114.97;;;52.03;;
84523;SDS011;74765;44.538;18.668;2023-12-20T06:07:00;134.25;;;57.33;;
84523;SDS011;74765;44.538;18.668;2023-12-20T06:09:26;161.52;;;69.13;;
84523;SDS011;74765;44.538;18.668;2023-12-20T06:11:52;167.55;;;70.50;;
84523;SDS011;74765;44.538;18.668;2023-12-20T06:14:21;190.90;;;79.53;;
84523;SDS011;74765;44.538;18.668;2023-12-20T06:16:49;171.23;;;69.85;;
84523;SDS011;74765;44.538;18.668;2023-12-20T06:19:15;202.63;;;79.80;;
84523;SDS011;74765;44.538;18.668;2023-12-20T06:21:41;159.68;;;66.53;;
84523;SDS011;74765;44.538;18.668;2023-12-20T06:24:07;179.80;;;72.53;;
84523;SDS011;74765;44.538;18.668;2023-12-20T06:26:32;213.88;;;86.70;;
84523;SDS011;74765;44.538;18.668;2023-12-20T06:28:58;152.20;;;64.72;;
84523;SDS011;74765;44.538;18.668;2023-12-20T06:31:27;176.35;;;72.10;;
84523;SDS011;74765;44.538;18.668;2023-12-20T06:33:54;159.80;;;62.83;;
84523;SDS011;74765;44.538;18.668;2023-12-20T06:36:28;170.85;;;64.70;;
84523;SDS011;74765;44.538;18.668;2023-12-20T06:38:54;180.68;;;73.22;;
84523;SDS011;74765;44.538;18.668;2023-12-20T06:41:20;159.60;;;63.22;;
84523;SDS011;74765;44.538;18.668;2023-12-20T06:43:46;176.27;;;67.82;;
84523;SDS011;74765;44.538;18.668;2023-12-20T06:46:32;192.15;;;74.03;;
84523;SDS011;74765;44.538;18.668;2023-12-20T06:48:57;215.73;;;86.05;;
84523;SDS011;74765;44.538;18.668;2023-12-20T06:51:23;188.10;;;74.03;;
84523;SDS011;74765;44.538;18.668;2023-12-20T06:53:53;197.50;;;75.40;;
84523;SDS011;74765;44.538;18.668;2023-12-20T06:56:19;218.15;;;85.13;;
84523;SDS011;74765;44.538;18.668;2023-12-20T06:58:45;188.60;;;77.45;;
84523;SDS011;74765;44.538;18.668;2023-12-20T07:01:14;201.95;;;82.00;;
84523;SDS011;74765;44.538;18.668;2023-12-20T07:03:40;185.18;;;80.07;;
84523;SDS011;74765;44.538;18.668;2023-12-20T07:06:07;171.00;;;69.57;;
84523;SDS011;74765;44.538;18.668;2023-12-20T07:08:33;166.57;;;72.03;;
84523;SDS011;74765;44.538;18.668;2023-12-20T07:10:59;168.55;;;74.03;;
84523;SDS011;74765;44.538;18.668;2023-12-20T07:13:25;168.95;;;71.72;;
84523;SDS011;74765;44.538;18.668;2023-12-20T07:15:51;165.35;;;73.57;;
84523;SDS011;74765;44.538;18.668;2023-12-20T07:18:17;212.43;;;87.72;;
84523;SDS011;74765;44.538;18.668;2023-12-20T07:20:43;230.57;;;93.97;;
84523;SDS011;74765;44.538;18.668;2023-12-20T07:23:09;203.23;;;87.32;;
84523;SDS011;74765;44.538;18.668;2023-12-20T07:25:35;143.00;;;64.93;;
84523;SDS011;74765;44.538;18.668;2023-12-20T07:28:01;133.40;;;62.10;;
84523;SDS011;74765;44.538;18.668;2023-12-20T07:30:27;130.43;;;62.38;;
84523;SDS011;74765;44.538;18.668;2023-12-20T07:32:53;138.32;;;69.65;;
84523;SDS011;74765;44.538;18.668;2023-12-20T07:35:19;132.30;;;64.35;;
84523;SDS011;74765;44.538;18.668;2023-12-20T07:37:45;149.55;;;76.45;;
84523;SDS011;74765;44.538;18.668;2023-12-20T07:40:11;153.73;;;76.10;;
84523;SDS011;74765;44.538;18.668;2023-12-20T07:42:37;146.10;;;76.30;;
84523;SDS011;74765;44.538;18.668;2023-12-20T07:45:03;170.40;;;81.00;;
84523;SDS011;74765;44.538;18.668;2023-12-20T07:47:30;167.18;;;82.53;;
84523;SDS011;74765;44.538;18.668;2023-12-20T07:49:56;175.50;;;85.97;;
84523;SDS011;74765;44.538;18.668;2023-12-20T07:52:22;191.38;;;96.13;;
84523;SDS011;74765;44.538;18.668;2023-12-20T07:57:38;182.75;;;95.90;;
84523;SDS011;74765;44.538;18.668;2023-12-20T08:00:04;181.07;;;92.95;;
84523;SDS011;74765;44.538;18.668;2023-12-20T08:02:31;184.45;;;94.28;;
84523;SDS011;74765;44.538;18.668;2023-12-20T08:05:00;178.98;;;92.80;;
84523;SDS011;74765;44.538;18.668;2023-12-20T08:07:31;171.52;;;95.45;;
84523;SDS011;74765;44.538;18.668;2023-12-20T08:10:00;174.10;;;95.43;;
84523;SDS011;74765;44.538;18.668;2023-12-20T08:12:26;172.13;;;90.18;;
84523;SDS011;74765;44.538;18.668;2023-12-20T08:14:53;166.77;;;89.85;;
84523;SDS011;74765;44.538;18.668;2023-12-20T08:17:19;154.45;;;83.38;;
84523;SDS011;74765;44.538;18.668;2023-12-20T08:19:45;163.23;;;93.82;;
84523;SDS011;74765;44.538;18.668;2023-12-20T08:22:20;146.98;;;80.97;;
84523;SDS011;74765;44.538;18.668;2023-12-20T08:24:49;150.50;;;83.85;;
84523;SDS011;74765;44.538;18.668;2023-12-20T08:27:15;161.65;;;93.15;;
84523;SDS011;74765;44.538;18.668;2023-12-20T08:29:43;192.30;;;103.47;;
84523;SDS011;74765;44.538;18.668;2023-12-20T08:32:10;200.82;;;108.97;;
84523;SDS011;74765;44.538;18.668;2023-12-20T08:34:36;233.27;;;120.13;;
84523;SDS011;74765;44.538;18.668;2023-12-20T08:37:05;215.48;;;114.22;;
84523;SDS011;74765;44.538;18.668;2023-12-20T08:39:31;221.17;;;116.10;;
84523;SDS011;74765;44.538;18.668;2023-12-20T08:42:18;198.02;;;104.68;;
84523;SDS011;74765;44.538;18.668;2023-12-20T08:44:45;204.23;;;112.03;;
84523;SDS011;74765;44.538;18.668;2023-12-20T08:47:12;226.82;;;118.40;;
84523;SDS011;74765;44.538;18.668;2023-12-20T08:49:43;186.27;;;103.70;;
84523;SDS011;74765;44.538;18.668;2023-12-20T08:52:28;174.40;;;97.30;;
84523;SDS011;74765;44.538;18.668;2023-12-20T08:54:55;183.15;;;102.93;;
84523;SDS011;74765;44.538;18.668;2023-12-20T08:57:22;180.93;;;100.85;;
84523;SDS011;74765;44.538;18.668;2023-12-20T08:59:49;184.18;;;102.32;;
84523;SDS011;74765;44.538;18.668;2023-12-20T09:02:16;255.88;;;142.75;;
84523;SDS011;74765;44.538;18.668;2023-12-20T09:04:43;142.75;;;81.82;;
84523;SDS011;74765;44.538;18.668;2023-12-20T09:07:24;146.90;;;86.53;;
84523;SDS011;74765;44.538;18.668;2023-12-20T09:09:52;164.68;;;93.45;;
84523;SDS011;74765;44.538;18.668;2023-12-20T09:12:18;185.25;;;109.00;;
84523;SDS011;74765;44.538;18.668;2023-12-20T09:14:48;208.02;;;118.68;;
84523;SDS011;74765;44.538;18.668;2023-12-20T09:17:15;192.35;;;110.90;;
84523;SDS011;74765;44.538;18.668;2023-12-20T09:19:46;169.32;;;100.93;;
84523;SDS011;74765;44.538;18.668;2023-12-20T09:22:14;152.10;;;89.95;;
84523;SDS011;74765;44.538;18.668;2023-12-20T09:24:43;162.43;;;95.85;;
84523;SDS011;74765;44.538;18.668;2023-12-20T09:27:10;239.32;;;138.40;;
84523;SDS011;74765;44.538;18.668;2023-12-20T09:29:36;378.02;;;221.15;;
84523;SDS011;74765;44.538;18.668;2023-12-20T09:32:01;371.50;;;227.10;;
84523;SDS011;74765;44.538;18.668;2023-12-20T09:34:28;288.88;;;161.15;;
84523;SDS011;74765;44.538;18.668;2023-12-20T09:36:54;231.68;;;131.93;;
84523;SDS011;74765;44.538;18.668;2023-12-20T09:39:21;275.20;;;154.98;;
84523;SDS011;74765;44.538;18.668;2023-12-20T09:41:53;400.00;;;237.77;;
84523;SDS011;74765;44.538;18.668;2023-12-20T09:44:29;396.83;;;241.10;;
84523;SDS011;74765;44.538;18.668;2023-12-20T09:46:57;404.73;;;245.52;;
84523;SDS011;74765;44.538;18.668;2023-12-20T09:49:27;384.17;;;224.48;;
84523;SDS011;74765;44.538;18.668;2023-12-20T09:51:53;415.58;;;240.20;;
84523;SDS011;74765;44.538;18.668;2023-12-20T09:54:23;439.23;;;259.75;;
84523;SDS011;74765;44.538;18.668;2023-12-20T09:56:53;430.90;;;245.38;;
84523;SDS011;74765;44.538;18.668;2023-12-20T09:59:20;506.33;;;302.90;;
84523;SDS011;74765;44.538;18.668;2023-12-20T10:02:06;479.58;;;278.80;;
84523;SDS011;74765;44.538;18.668;2023-12-20T10:04:38;440.67;;;243.88;;
84523;SDS011;74765;44.538;18.668;2023-12-20T10:07:12;397.75;;;208.52;;
84523;SDS011;74765;44.538;18.668;2023-12-20T10:09:38;390.00;;;202.60;;
84523;SDS011;74765;44.538;18.668;2023-12-20T10:12:04;408.77;;;209.82;;
84523;SDS011;74765;44.538;18.668;2023-12-20T10:14:32;402.65;;;208.98;;
84523;SDS011;74765;44.538;18.668;2023-12-20T10:17:04;398.38;;;212.05;;
84523;SDS011;74765;44.538;18.668;2023-12-20T10:19:31;409.70;;;222.63;;
84523;SDS011;74765;44.538;18.668;2023-12-20T10:22:00;362.25;;;191.68;;
84523;SDS011;74765;44.538;18.668;2023-12-20T10:24:29;339.33;;;191.52;;
84523;SDS011;74765;44.538;18.668;2023-12-20T10:27:02;325.85;;;176.23;;
84523;SDS011;74765;44.538;18.668;2023-12-20T10:29:37;287.92;;;159.23;;
84523;SDS011;74765;44.538;18.668;2023-12-20T10:32:23;257.40;;;141.73;;
84523;SDS011;74765;44.538;18.668;2023-12-20T10:34:49;304.42;;;172.50;;
84523;SDS011;74765;44.538;18.668;2023-12-20T10:37:17;298.73;;;170.35;;
84523;SDS011;74765;44.538;18.668;2023-12-20T10:39:43;329.75;;;185.60;;
84523;SDS011;74765;44.538;18.668;2023-12-20T10:42:12;325.77;;;183.18;;
84523;SDS011;74765;44.538;18.668;2023-12-20T10:44:38;322.60;;;177.95;;
84523;SDS011;74765;44.538;18.668;2023-12-20T10:47:09;371.80;;;200.57;;
84523;SDS011;74765;44.538;18.668;2023-12-20T10:49:37;425.70;;;231.27;;
84523;SDS011;74765;44.538;18.668;2023-12-20T10:52:07;399.80;;;218.15;;
84523;SDS011;74765;44.538;18.668;2023-12-20T10:54:34;380.73;;;205.77;;
84523;SDS011;74765;44.538;18.668;2023-12-20T10:57:00;366.05;;;192.00;;
84523;SDS011;74765;44.538;18.668;2023-12-20T10:59:30;338.83;;;178.10;;
84523;SDS011;74765;44.538;18.668;2023-12-20T11:01:59;344.98;;;183.18;;
84523;SDS011;74765;44.538;18.668;2023-12-20T11:04:26;288.23;;;149.95;;
84523;SDS011;74765;44.538;18.668;2023-12-20T11:07:03;288.88;;;146.98;;
84523;SDS011;74765;44.538;18.668;2023-12-20T11:09:47;252.02;;;127.47;;
84523;SDS011;74765;44.538;18.668;2023-12-20T11:12:28;305.45;;;153.50;;
84523;SDS011;74765;44.538;18.668;2023-12-20T11:15:02;344.58;;;178.43;;
84523;SDS011;74765;44.538;18.668;2023-12-20T11:17:29;362.75;;;185.75;;
84523;SDS011;74765;44.538;18.668;2023-12-20T11:22:27;372.75;;;192.63;;
84523;SDS011;74765;44.538;18.668;2023-12-20T11:25:00;349.70;;;184.35;;
84523;SDS011;74765;44.538;18.668;2023-12-20T11:27:34;270.85;;;137.15;;
84523;SDS011;74765;44.538;18.668;2023-12-20T11:30:00;318.02;;;168.05;;
84523;SDS011;74765;44.538;18.668;2023-12-20T11:32:34;325.60;;;178.55;;
84523;SDS011;74765;44.538;18.668;2023-12-20T11:35:01;353.58;;;184.50;;
84523;SDS011;74765;44.538;18.668;2023-12-20T11:37:43;339.63;;;175.20;;
84523;SDS011;74765;44.538;18.668;2023-12-20T11:40:15;322.63;;;162.40;;
84523;SDS011;74765;44.538;18.668;2023-12-20T11:42:45;260.30;;;132.40;;
84523;SDS011;74765;44.538;18.668;2023-12-20T11:45:22;266.90;;;133.40;;
84523;SDS011;74765;44.538;18.668;2023-12-20T11:47:53;246.40;;;121.22;;
84523;SDS011;74765;44.538;18.668;2023-12-20T11:50:23;178.20;;;90.82;;
84523;SDS011;74765;44.538;18.668;2023-12-20T11:52:52;236.20;;;124.25;;
84523;SDS011;74765;44.538;18.668;2023-12-20T11:55:21;218.07;;;108.78;;
84523;SDS011;74765;44.538;18.668;2023-12-20T11:57:47;234.15;;;116.38;;
84523;SDS011;74765;44.538;18.668;2023-12-20T12:00:13;281.02;;;134.43;;
84523;SDS011;74765;44.538;18.668;2023-12-20T12:05:40;248.90;;;128.90;;
84523;SDS011;74765;44.538;18.668;2023-12-20T12:08:08;204.88;;;108.90;;
84523;SDS011;74765;44.538;18.668;2023-12-20T12:13:58;265.38;;;136.27;;
84523;SDS011;74765;44.538;18.668;2023-12-20T12:16:26;286.73;;;144.23;;
84523;SDS011;74765;44.538;18.668;2023-12-20T12:18:56;287.17;;;138.18;;
84523;SDS011;74765;44.538;18.668;2023-12-20T12:22:12;272.58;;;137.50;;
84523;SDS011;74765;44.538;18.668;2023-12-20T12:24:41;279.13;;;139.02;;
84523;SDS011;74765;44.538;18.668;2023-12-20T12:27:08;281.38;;;139.20;;
84523;SDS011;74765;44.538;18.668;2023-12-20T12:29:34;244.93;;;115.90;;
84523;SDS011;74765;44.538;18.668;2023-12-20T12:32:04;203.82;;;99.72;;
84523;SDS011;74765;44.538;18.668;2023-12-20T12:34:32;191.77;;;91.70;;
84523;SDS011;74765;44.538;18.668;2023-12-20T12:36:59;200.80;;;98.38;;
84523;SDS011;74765;44.538;18.668;2023-12-20T12:39:25;178.25;;;86.65;;
84523;SDS011;74765;44.538;18.668;2023-12-20T12:42:15;154.80;;;74.25;;
84523;SDS011;74765;44.538;18.668;2023-12-20T12:44:40;213.95;;;99.03;;
84523;SDS011;74765;44.538;18.668;2023-12-20T12:47:06;218.60;;;101.95;;
84523;SDS011;74765;44.538;18.668;2023-12-20T12:49:33;194.63;;;91.18;;
84523;SDS011;74765;44.538;18.668;2023-12-20T12:51:59;155.05;;;77.97;;
84523;SDS011;74765;44.538;18.668;2023-12-20T12:54:25;147.85;;;72.93;;
84523;SDS011;74765;44.538;18.668;2023-12-20T12:56:51;144.55;;;71.95;;
84523;SDS011;74765;44.538;18.668;2023-12-20T12:59:18;140.02;;;67.00;;
84523;SDS011;74765;44.538;18.668;2023-12-20T13:01:44;155.82;;;71.88;;
84523;SDS011;74765;44.538;18.668;2023-12-20T13:04:10;174.52;;;83.47;;
84523;SDS011;74765;44.538;18.668;2023-12-20T13:06:36;197.80;;;94.53;;
84523;SDS011;74765;44.538;18.668;2023-12-20T13:09:03;190.15;;;92.45;;
84523;SDS011;74765;44.538;18.668;2023-12-20T13:11:30;187.27;;;88.60;;
84523;SDS011;74765;44.538;18.668;2023-12-20T13:13:57;175.77;;;85.18;;
84523;SDS011;74765;44.538;18.668;2023-12-20T13:16:25;150.02;;;73.90;;
84523;SDS011;74765;44.538;18.668;2023-12-20T13:18:52;140.00;;;71.80;;
84523;SDS011;74765;44.538;18.668;2023-12-20T13:21:19;170.00;;;82.03;;
84523;SDS011;74765;44.538;18.668;2023-12-20T13:23:45;149.48;;;72.90;;
84523;SDS011;74765;44.538;18.668;2023-12-20T13:26:14;233.10;;;106.43;;
84523;SDS011;74765;44.538;18.668;2023-12-20T13:28:40;181.25;;;86.40;;
84523;SDS011;74765;44.538;18.668;2023-12-20T13:31:06;202.00;;;92.35;;
84523;SDS011;74765;44.538;18.668;2023-12-20T13:33:35;238.93;;;108.22;;
84523;SDS011;74765;44.538;18.668;2023-12-20T13:36:01;194.50;;;88.43;;
84523;SDS011;74765;44.538;18.668;2023-12-20T13:38:27;206.60;;;97.97;;
84523;SDS011;74765;44.538;18.668;2023-12-20T13:40:53;286.80;;;127.72;;
84523;SDS011;74765;44.538;18.668;2023-12-20T13:43:19;248.88;;;110.10;;
84523;SDS011;74765;44.538;18.668;2023-12-20T13:45:47;256.15;;;117.82;;
84523;SDS011;74765;44.538;18.668;2023-12-20T13:48:15;352.48;;;140.52;;
84523;SDS011;74765;44.538;18.668;2023-12-20T13:50:41;276.05;;;116.35;;
84523;SDS011;74765;44.538;18.668;2023-12-20T13:53:07;162.77;;;72.90;;
84523;SDS011;74765;44.538;18.668;2023-12-20T13:55:33;106.93;;;50.78;;
84523;SDS011;74765;44.538;18.668;2023-12-20T13:57:59;33.10;;;18.80;;
84523;SDS011;74765;44.538;18.668;2023-12-20T14:00:25;26.55;;;15.77;;
84523;SDS011;74765;44.538;18.668;2023-12-20T14:02:51;26.38;;;15.77;;
84523;SDS011;74765;44.538;18.668;2023-12-20T14:05:17;30.45;;;16.88;;
84523;SDS011;74765;44.538;18.668;2023-12-20T14:07:46;29.25;;;17.15;;